createdAt,value
2022-11-20T00:00:33.728Z,71.78
2022-11-20T00:01:33.895Z,73.01
2022-11-20T00:02:33.745Z,72.24
2022-11-20T00:03:33.739Z,71.59
2022-11-20T00:04:33.736Z,71.37
2022-11-20T00:05:33.739Z,71.65
2022-11-20T00:06:33.762Z,72.3
2022-11-20T00:07:33.786Z,72.46
2022-11-20T00:08:33.740Z,72.83
2022-11-20T00:09:33.749Z,74.21
2022-11-20T00:10:33.740Z,73.62
2022-11-20T00:11:33.757Z,72.89
2022-11-20T00:12:33.737Z,74.32
2022-11-20T00:13:33.741Z,74.56
2022-11-20T00:14:33.738Z,75.56
2022-11-20T00:15:33.739Z,75.51
2022-11-20T00:16:33.785Z,74.03
2022-11-20T00:17:33.752Z,73.84
2022-11-20T00:18:33.749Z,72.96
2022-11-20T00:19:33.733Z,72.51
2022-11-20T00:20:33.753Z,72.59
2022-11-20T00:21:33.766Z,72.46
2022-11-20T00:22:33.747Z,72.04
2022-11-20T00:23:33.744Z,71.66
2022-11-20T00:24:35.139Z,71.86
2022-11-20T00:25:33.743Z,72.3
2022-11-20T00:26:33.766Z,72.3
2022-11-20T00:27:33.745Z,73.4
2022-11-20T00:28:33.784Z,73.18
2022-11-20T00:29:33.734Z,72.73
2022-11-20T00:30:33.727Z,73.46
2022-11-20T00:31:33.756Z,71.43
2022-11-20T00:32:33.744Z,73.65
2022-11-20T00:33:33.740Z,74.83
2022-11-20T00:34:33.744Z,75.3
2022-11-20T00:35:33.739Z,74.94
2022-11-20T00:36:33.752Z,75.42
2022-11-20T00:37:33.744Z,74.18
2022-11-20T00:38:33.742Z,73.93
2022-11-20T00:39:33.742Z,74.03
2022-11-20T00:40:33.739Z,74.15
2022-11-20T00:41:33.763Z,74.82
2022-11-20T00:42:33.741Z,74.25
2022-11-20T00:43:33.741Z,74.09
2022-11-20T00:44:33.793Z,74.09
2022-11-20T00:45:33.724Z,73.93
2022-11-20T00:46:33.741Z,73.13
2022-11-20T00:47:33.724Z,73.64
2022-11-20T00:48:33.732Z,75.76
2022-11-20T00:49:33.725Z,75.55
2022-11-20T00:50:33.828Z,75.22
2022-11-20T00:51:33.748Z,75.42
2022-11-20T00:52:33.726Z,76.7
2022-11-20T00:53:33.726Z,76.49
2022-11-20T00:54:33.730Z,76.71
2022-11-20T00:55:33.728Z,75.28
2022-11-20T00:56:33.743Z,75.71
2022-11-20T00:57:33.726Z,75.16
2022-11-20T00:58:33.727Z,74.87
2022-11-20T00:59:33.726Z,74.94
2022-11-20T01:00:33.726Z,74.79
2022-11-20T01:01:33.780Z,75.13
2022-11-20T01:02:33.725Z,74.91
2022-11-20T01:03:33.728Z,73.96
2022-11-20T01:04:33.730Z,75.49
2022-11-20T01:05:33.721Z,75.46
2022-11-20T01:06:33.746Z,76.57
2022-11-20T01:07:33.772Z,78.73
2022-11-20T01:08:33.724Z,79.29
2022-11-20T01:09:33.725Z,79.29
2022-11-20T01:10:33.729Z,82.54
2022-11-20T01:11:33.759Z,81.21
2022-11-20T01:12:33.724Z,81.32
2022-11-20T01:13:33.726Z,79.62
2022-11-20T01:14:33.742Z,79.62
2022-11-20T01:15:33.725Z,78.68
2022-11-20T01:16:33.765Z,78.44
2022-11-20T01:17:33.735Z,77.72
2022-11-20T01:18:33.756Z,77.36
2022-11-20T01:19:33.748Z,78.07
2022-11-20T01:20:33.746Z,78.53
2022-11-20T01:21:33.789Z,78.53
2022-11-20T01:22:33.743Z,79.11
2022-11-20T01:23:33.739Z,78.31
2022-11-20T01:24:33.775Z,79.13
2022-11-20T01:25:33.725Z,78.95
2022-11-20T01:26:33.761Z,78.22
2022-11-20T01:27:33.822Z,78.04
2022-11-20T01:28:33.740Z,77.89
2022-11-20T01:29:33.736Z,77.8
2022-11-20T01:30:33.753Z,78.23
2022-11-20T01:31:33.759Z,77.86
2022-11-20T01:32:33.738Z,77.09
2022-11-20T01:33:33.741Z,77.57
2022-11-20T01:34:33.742Z,79.31
2022-11-20T01:35:33.738Z,78.53
2022-11-20T01:36:33.757Z,77.81
2022-11-20T01:37:33.735Z,77.1
2022-11-20T01:38:33.754Z,77.27
2022-11-20T01:39:33.740Z,77.28
2022-11-20T01:40:33.741Z,78.03
2022-11-20T01:41:33.757Z,76.88
2022-11-20T01:42:33.744Z,74.03
2022-11-20T01:43:33.734Z,76.28
2022-11-20T01:44:33.748Z,76.21
2022-11-20T01:45:33.740Z,76.46
2022-11-20T01:46:33.759Z,77.63
2022-11-20T01:47:33.744Z,79.24
2022-11-20T01:48:33.746Z,78.62
2022-11-20T01:49:33.743Z,78.18
2022-11-20T01:50:33.737Z,80.5
2022-11-20T01:51:33.763Z,80.46
2022-11-20T01:52:33.759Z,78.63
2022-11-20T01:53:33.723Z,78.79
2022-11-20T01:54:33.738Z,78.61
2022-11-20T01:55:33.752Z,79.31
2022-11-20T01:56:33.749Z,81.03
2022-11-20T01:57:33.747Z,79.81
2022-11-20T01:58:33.737Z,80.65
2022-11-20T01:59:33.745Z,79.4
2022-11-20T02:00:33.725Z,80.3
2022-11-20T02:01:33.765Z,79.58
2022-11-20T02:02:33.742Z,79.48
2022-11-20T02:03:33.747Z,78.54
2022-11-20T02:04:33.745Z,78.02
2022-11-20T02:05:33.743Z,80.24
2022-11-20T02:06:33.751Z,81.63
2022-11-20T02:07:33.778Z,80.83
2022-11-20T02:08:33.726Z,81.98
2022-11-20T02:09:33.719Z,80.57
2022-11-20T02:10:33.756Z,79.59
2022-11-20T02:11:33.735Z,78.3
2022-11-20T02:12:33.724Z,77.98
2022-11-20T02:13:33.724Z,80.81
2022-11-20T02:14:33.726Z,81.46
2022-11-20T02:15:33.724Z,79.06
2022-11-20T02:16:33.742Z,79.02
2022-11-20T02:17:33.728Z,79.11
2022-11-20T02:18:33.726Z,79.25
2022-11-20T02:19:33.734Z,78.41
2022-11-20T02:20:33.732Z,78.41
2022-11-20T02:21:33.763Z,77.79
2022-11-20T02:22:33.732Z,78.67
2022-11-20T02:23:33.722Z,77.96
2022-11-20T02:24:33.718Z,78.15
2022-11-20T02:25:33.720Z,78.77
2022-11-20T02:26:33.737Z,79.05
2022-11-20T02:27:33.721Z,78.01
2022-11-20T02:28:33.735Z,77.63
2022-11-20T02:29:33.735Z,78.45
2022-11-20T02:30:33.728Z,78.02
2022-11-20T02:31:33.755Z,78.44
2022-11-20T02:32:33.749Z,78.48
2022-11-20T02:33:33.728Z,79.01
2022-11-20T02:34:33.747Z,79.18
2022-11-20T02:35:33.739Z,78.39
2022-11-20T02:36:33.751Z,78.24
2022-11-20T02:37:33.744Z,78.3
2022-11-20T02:38:33.745Z,78.57
2022-11-20T02:39:33.740Z,78.66
2022-11-20T02:40:33.736Z,79.16
2022-11-20T02:41:33.801Z,79.09
2022-11-20T02:42:33.743Z,78.97
2022-11-20T02:43:33.750Z,78.72
2022-11-20T02:44:33.752Z,78.45
2022-11-20T02:45:33.745Z,78.53
2022-11-20T02:46:33.779Z,78.93
2022-11-20T02:47:33.754Z,78.75
2022-11-20T02:48:34.035Z,79.68
2022-11-20T02:49:33.755Z,79.21
2022-11-20T02:50:33.740Z,79.2
2022-11-20T02:51:33.917Z,79.76
2022-11-20T02:52:33.763Z,79.77
2022-11-20T02:53:33.757Z,79.6
2022-11-20T02:54:33.747Z,79.43
2022-11-20T02:55:33.736Z,78.8
2022-11-20T02:56:33.759Z,78.83
2022-11-20T02:57:33.735Z,79.01
2022-11-20T02:58:33.739Z,78.57
2022-11-20T02:59:33.740Z,79.86
2022-11-20T03:00:33.719Z,79.6
2022-11-20T03:01:33.828Z,79.72
2022-11-20T03:02:33.727Z,78.84
2022-11-20T03:03:33.735Z,79.18
2022-11-20T03:04:33.816Z,79.36
2022-11-20T03:05:33.739Z,78.32
2022-11-20T03:06:33.752Z,77.97
2022-11-20T03:07:33.852Z,78.93
2022-11-20T03:08:33.736Z,78.39
2022-11-20T03:09:33.718Z,78.4
2022-11-20T03:10:33.735Z,79.25
2022-11-20T03:11:33.752Z,78.99
2022-11-20T03:12:33.769Z,78.89
2022-11-20T03:13:33.728Z,79
2022-11-20T03:14:33.729Z,78.84
2022-11-20T03:15:33.730Z,78.69
2022-11-20T03:16:33.733Z,79.23
2022-11-20T03:17:33.715Z,79.28
2022-11-20T03:18:33.715Z,79.66
2022-11-20T03:19:33.716Z,79.17
2022-11-20T03:20:33.715Z,79.77
2022-11-20T03:21:33.731Z,79.01
2022-11-20T03:22:33.714Z,79.6
2022-11-20T03:23:33.716Z,78.9
2022-11-20T03:24:33.713Z,78.91
2022-11-20T03:25:33.719Z,78.75
2022-11-20T03:26:33.738Z,78.69
2022-11-20T03:27:33.716Z,78.69
2022-11-20T03:28:33.725Z,78.7
2022-11-20T03:29:33.717Z,78.48
2022-11-20T03:30:33.718Z,77.9
2022-11-20T03:31:33.730Z,78.97
2022-11-20T03:32:33.716Z,79.18
2022-11-20T03:33:33.715Z,79.5
2022-11-20T03:34:33.719Z,79.12
2022-11-20T03:35:33.713Z,79.78
2022-11-20T03:36:33.737Z,79.77
2022-11-20T03:37:33.716Z,79.96
2022-11-20T03:38:33.713Z,79.76
2022-11-20T03:39:33.735Z,79.37
2022-11-20T03:40:33.728Z,79.37
2022-11-20T03:41:33.752Z,79.76
2022-11-20T03:42:33.732Z,80.25
2022-11-20T03:43:33.732Z,80.04
2022-11-20T03:44:33.740Z,79.6
2022-11-20T03:45:33.733Z,78.74
2022-11-20T03:46:33.754Z,78.59
2022-11-20T03:47:33.714Z,78.86
2022-11-20T03:48:33.738Z,79.29
2022-11-20T03:49:33.737Z,80.21
2022-11-20T03:50:33.741Z,79.34
2022-11-20T03:51:33.766Z,79.34
2022-11-20T03:52:33.748Z,79.18
2022-11-20T03:53:33.736Z,78.86
2022-11-20T03:54:33.738Z,79.18
2022-11-20T03:55:33.737Z,80.43
2022-11-20T03:56:33.753Z,79.94
2022-11-20T03:57:33.739Z,79.18
2022-11-20T03:58:33.738Z,79.4
2022-11-20T03:59:33.736Z,79.35
2022-11-20T04:00:33.718Z,79.24
2022-11-20T04:01:33.836Z,82.14
2022-11-20T04:02:33.731Z,-10.87
2022-11-20T04:03:33.731Z,81.07
2022-11-20T04:04:33.728Z,80.63
2022-11-20T04:05:33.720Z,80.2
2022-11-20T04:06:33.746Z,79.82
2022-11-20T04:07:33.797Z,80.05
2022-11-20T04:08:33.734Z,79.18
2022-11-20T04:09:33.728Z,79.08
2022-11-20T04:10:33.739Z,81.09
2022-11-20T04:11:33.754Z,79.83
2022-11-20T04:12:33.738Z,79.13
2022-11-20T04:13:33.738Z,79.83
2022-11-20T04:14:33.738Z,81.7
2022-11-20T04:15:38.218Z,81.04
2022-11-20T04:16:33.756Z,81.09
2022-11-20T04:17:33.735Z,80.32
2022-11-20T04:18:33.735Z,80.1
2022-11-20T04:19:33.733Z,79.67
2022-11-20T04:20:33.753Z,79.94
2022-11-20T04:21:33.759Z,81.31
2022-11-20T04:22:33.738Z,80.65
2022-11-20T04:23:33.763Z,79.13
2022-11-20T04:24:33.737Z,79.62
2022-11-20T04:25:33.744Z,80.05
2022-11-20T04:26:33.737Z,80.54
2022-11-20T04:27:33.720Z,80.54
2022-11-20T04:28:33.759Z,79.73
2022-11-20T04:29:33.720Z,79.08
2022-11-20T04:30:33.720Z,79.24
2022-11-20T04:31:33.737Z,79.34
2022-11-20T04:32:33.715Z,79.61
2022-11-20T04:33:34.349Z,79.83
2022-11-20T04:34:33.715Z,79.62
2022-11-20T04:35:33.716Z,79.24
2022-11-20T04:36:33.740Z,79.72
2022-11-20T04:37:33.727Z,80.38
2022-11-20T04:38:33.826Z,80.6
2022-11-20T04:39:33.719Z,80.75
2022-11-20T04:40:33.718Z,81.33
2022-11-20T04:41:33.735Z,81.05
2022-11-20T04:42:33.717Z,80.12
2022-11-20T04:43:33.737Z,79.6
2022-11-20T04:44:33.719Z,79.6
2022-11-20T04:45:33.719Z,80.79
2022-11-20T04:46:33.734Z,82.24
2022-11-20T04:47:33.721Z,80.53
2022-11-20T04:48:33.734Z,80.02
2022-11-20T04:49:33.783Z,80.28
2022-11-20T04:50:33.735Z,78.33
2022-11-20T04:51:33.885Z,78.1
2022-11-20T04:52:33.734Z,78.82
2022-11-20T04:53:33.731Z,77.97
2022-11-20T04:54:33.737Z,78.2
2022-11-20T04:55:33.726Z,78.37
2022-11-20T04:56:33.746Z,79.29
2022-11-20T04:57:33.809Z,80.3
2022-11-20T04:58:33.736Z,79.5
2022-11-20T04:59:33.739Z,78.21
2022-11-20T05:00:33.722Z,78.86
2022-11-20T05:01:33.849Z,79.13
2022-11-20T05:02:33.718Z,78.75
2022-11-20T05:03:36.334Z,78.59
2022-11-20T05:04:33.737Z,78.81
2022-11-20T05:05:33.736Z,79.29
2022-11-20T05:06:33.748Z,79.07
2022-11-20T05:07:33.789Z,78.91
2022-11-20T05:08:33.734Z,79.23
2022-11-20T05:09:33.732Z,79.35
2022-11-20T05:10:33.717Z,81.36
2022-11-20T05:11:33.748Z,82.64
2022-11-20T05:12:33.738Z,80.49
2022-11-20T05:13:33.721Z,80
2022-11-20T05:14:33.729Z,79.4
2022-11-20T05:15:33.735Z,79.22
2022-11-20T05:16:33.758Z,79.99
2022-11-20T05:17:33.739Z,79.92
2022-11-20T05:18:33.727Z,79.5
2022-11-20T05:19:33.758Z,79.73
2022-11-20T05:20:33.729Z,79.99
2022-11-20T05:21:33.747Z,79.18
2022-11-20T05:22:33.732Z,79.82
2022-11-20T05:23:33.727Z,80.65
2022-11-20T05:24:33.734Z,80.11
2022-11-20T05:25:33.740Z,81.79
2022-11-20T05:26:33.749Z,81.34
2022-11-20T05:27:33.726Z,80.36
2022-11-20T05:28:33.732Z,80.2
2022-11-20T05:29:33.729Z,78.69
2022-11-20T05:30:33.721Z,78.27
2022-11-20T05:31:33.753Z,77.36
2022-11-20T05:32:33.736Z,78.99
2022-11-20T05:33:33.732Z,79.05
2022-11-20T05:34:33.734Z,79.33
2022-11-20T05:35:33.734Z,78.96
2022-11-20T05:36:33.753Z,79.76
2022-11-20T05:37:33.736Z,80.15
2022-11-20T05:38:33.732Z,78.64
2022-11-20T05:39:33.714Z,78.25
2022-11-20T05:40:33.715Z,79.3
2022-11-20T05:41:33.740Z,79.7
2022-11-20T05:42:33.719Z,78.62
2022-11-20T05:43:33.719Z,78.87
2022-11-20T05:44:33.714Z,79.59
2022-11-20T05:45:33.712Z,81.08
2022-11-20T05:46:33.733Z,81.69
2022-11-20T05:47:33.722Z,79.83
2022-11-20T05:48:33.712Z,80.32
2022-11-20T05:49:33.713Z,80.71
2022-11-20T05:50:33.722Z,80.11
2022-11-20T05:51:33.734Z,79.88
2022-11-20T05:52:33.718Z,79.88
2022-11-20T05:53:33.721Z,79.5
2022-11-20T05:54:33.720Z,78.64
2022-11-20T05:55:33.737Z,78.31
2022-11-20T05:56:33.735Z,78.67
2022-11-20T05:57:33.722Z,78.67
2022-11-20T05:58:33.717Z,79.13
2022-11-20T05:59:33.720Z,79.77
2022-11-20T06:00:33.718Z,79.67
2022-11-20T06:01:33.728Z,80.49
2022-11-20T06:02:33.776Z,79.77
2022-11-20T06:03:33.728Z,79.29
2022-11-20T06:04:33.726Z,80.2
2022-11-20T06:05:33.731Z,79.48
2022-11-20T06:06:33.739Z,79.01
2022-11-20T06:07:33.745Z,79.53
2022-11-20T06:08:33.729Z,78.35
2022-11-20T06:09:33.733Z,78
2022-11-20T06:10:33.713Z,77.68
2022-11-20T06:11:33.747Z,77.68
2022-11-20T06:12:33.734Z,79.93
2022-11-20T06:13:36.885Z,79.98
2022-11-20T06:14:33.744Z,80.19
2022-11-20T06:15:33.747Z,80.51
2022-11-20T06:16:33.750Z,79.64
2022-11-20T06:17:33.726Z,79.7
2022-11-20T06:18:33.786Z,79.46
2022-11-20T06:19:33.731Z,79.14
2022-11-20T06:20:37.859Z,79.58
2022-11-20T06:21:33.745Z,79.58
2022-11-20T06:22:33.739Z,78.27
2022-11-20T06:23:33.730Z,78.67
2022-11-20T06:24:33.735Z,78.13
2022-11-20T06:25:33.733Z,77.82
2022-11-20T06:26:33.782Z,78.2
2022-11-20T06:27:33.734Z,78.2
2022-11-20T06:28:33.731Z,78.83
2022-11-20T06:29:34.112Z,78.08
2022-11-20T06:30:33.719Z,77.45
2022-11-20T06:31:33.749Z,77.51
2022-11-20T06:32:33.736Z,77.19
2022-11-20T06:33:33.728Z,77.83
2022-11-20T06:34:33.733Z,78.9
2022-11-20T06:35:33.727Z,78.47
2022-11-20T06:36:33.754Z,78.2
2022-11-20T06:37:33.735Z,79.44
2022-11-20T06:38:33.723Z,79.83
2022-11-20T06:39:33.732Z,80.9
2022-11-20T06:40:33.714Z,79.13
2022-11-20T06:41:33.748Z,78.13
2022-11-20T06:42:33.735Z,78.4
2022-11-20T06:43:33.736Z,77.12
2022-11-20T06:44:33.754Z,78.38
2022-11-20T06:45:33.747Z,78.59
2022-11-20T06:46:33.736Z,79.31
2022-11-20T06:47:33.718Z,78.28
2022-11-20T06:48:33.717Z,78.96
2022-11-20T06:49:33.718Z,78.92
2022-11-20T06:50:33.740Z,78.2
2022-11-20T06:51:33.737Z,79.53
2022-11-20T06:52:33.713Z,78.31
2022-11-20T06:53:33.720Z,77.93
2022-11-20T06:54:33.713Z,76.81
2022-11-20T06:55:33.714Z,76.34
2022-11-20T06:56:33.730Z,77.05
2022-11-20T06:57:33.712Z,76.51
2022-11-20T06:58:33.715Z,76.01
2022-11-20T06:59:33.713Z,74.43
2022-11-20T07:00:33.762Z,75.34
2022-11-20T07:01:33.730Z,75.43
2022-11-20T07:02:33.718Z,74.62
2022-11-20T07:03:33.720Z,75.41
2022-11-20T07:04:33.718Z,75.79
2022-11-20T07:05:33.720Z,75.54
2022-11-20T07:06:33.737Z,75.54
2022-11-20T07:07:33.748Z,73.43
2022-11-20T07:08:33.719Z,72.77
2022-11-20T07:09:33.716Z,72.03
2022-11-20T07:10:33.722Z,71.88
2022-11-20T07:11:33.750Z,73.78
2022-11-20T07:12:33.729Z,74.45
2022-11-20T07:13:33.741Z,74.07
2022-11-20T07:14:33.738Z,73.34
2022-11-20T07:15:33.735Z,73.26
2022-11-20T07:16:33.744Z,74.13
2022-11-20T07:17:33.729Z,73.9
2022-11-20T07:18:33.738Z,73.9
2022-11-20T07:19:33.734Z,72.99
2022-11-20T07:20:33.714Z,74.26
2022-11-20T07:21:33.751Z,73.74
2022-11-20T07:22:33.746Z,72.73
2022-11-20T07:23:33.732Z,72.69
2022-11-20T07:24:33.740Z,74.03
2022-11-20T07:25:33.725Z,73.47
2022-11-20T07:26:33.753Z,73.17
2022-11-20T07:27:33.764Z,72.53
2022-11-20T07:28:33.731Z,71.01
2022-11-20T07:29:33.736Z,72.56
2022-11-20T07:30:33.721Z,73.26
2022-11-20T07:31:33.748Z,72.69
2022-11-20T07:32:33.735Z,72.82
2022-11-20T07:33:33.738Z,71.35
2022-11-20T07:34:33.736Z,73.08
2022-11-20T07:35:33.732Z,71.09
2022-11-20T07:36:33.752Z,71.64
2022-11-20T07:37:33.733Z,70.41
2022-11-20T07:38:33.719Z,70.86
2022-11-20T07:39:33.727Z,71.33
2022-11-20T07:40:33.713Z,72.28
2022-11-20T07:41:33.750Z,71.36
2022-11-20T07:42:33.735Z,70.71
2022-11-20T07:43:37.158Z,71.58
2022-11-20T07:44:33.733Z,70.45
2022-11-20T07:45:33.736Z,70.89
2022-11-20T07:46:33.749Z,70.62
2022-11-20T07:47:33.724Z,70.17
2022-11-20T07:48:33.732Z,69.78
2022-11-20T07:49:33.731Z,70.24
2022-11-20T07:50:33.718Z,68.35
2022-11-20T07:51:33.756Z,70.73
2022-11-20T07:52:33.731Z,68.46
2022-11-20T07:53:33.734Z,68.39
2022-11-20T07:54:33.729Z,69.02
2022-11-20T07:55:33.795Z,69.98
2022-11-20T07:56:33.736Z,69.35
2022-11-20T07:57:33.718Z,68.76
2022-11-20T07:58:33.807Z,68.83
2022-11-20T07:59:33.722Z,70.18
2022-11-20T08:00:33.776Z,70.57
2022-11-20T08:01:33.731Z,69.26
2022-11-20T08:02:33.717Z,69.26
2022-11-20T08:03:33.729Z,67
2022-11-20T08:04:33.718Z,67.43
2022-11-20T08:05:33.720Z,67.4
2022-11-20T08:06:33.727Z,69.84
2022-11-20T08:07:33.715Z,69.89
2022-11-20T08:08:34.232Z,69.89
2022-11-20T08:09:33.719Z,68.58
2022-11-20T08:10:33.725Z,69.39
2022-11-20T08:11:33.730Z,68.52
2022-11-20T08:12:33.715Z,69.32
2022-11-20T08:13:33.715Z,69.32
2022-11-20T08:14:33.719Z,68.34
2022-11-20T08:15:33.723Z,67.2
2022-11-20T08:16:33.734Z,67.12
2022-11-20T08:17:33.724Z,69.6
2022-11-20T08:18:33.789Z,69.75
2022-11-20T08:19:33.734Z,67.95
2022-11-20T08:20:33.717Z,69.26
2022-11-20T08:21:37.933Z,67.52
2022-11-20T08:22:33.745Z,69.11
2022-11-20T08:23:33.752Z,68.29
2022-11-20T08:24:33.736Z,68.79
2022-11-20T08:25:33.720Z,67.19
2022-11-20T08:26:33.747Z,67.44
2022-11-20T08:27:33.739Z,68.1
2022-11-20T08:28:33.735Z,68.28
2022-11-20T08:29:33.731Z,67.68
2022-11-20T08:30:33.717Z,67.09
2022-11-20T08:31:33.748Z,67.09
2022-11-20T08:32:33.737Z,66.77
2022-11-20T08:33:33.734Z,65.57
2022-11-20T08:34:33.726Z,67.18
2022-11-20T08:35:33.738Z,66.97
2022-11-20T08:36:33.733Z,66.23
2022-11-20T08:37:33.736Z,65.19
2022-11-20T08:38:33.745Z,67.07
2022-11-20T08:39:33.735Z,67.07
2022-11-20T08:40:33.719Z,65.34
2022-11-20T08:41:33.748Z,64.41
2022-11-20T08:42:33.737Z,64.41
2022-11-20T08:43:33.733Z,65.97
2022-11-20T08:44:33.741Z,65.84
2022-11-20T08:45:35.232Z,65.13
2022-11-20T08:46:33.738Z,65.13
2022-11-20T08:47:33.729Z,63.85
2022-11-20T08:48:33.732Z,65.08
2022-11-20T08:49:33.731Z,65.06
2022-11-20T08:50:34.070Z,64.81
2022-11-20T08:51:33.754Z,63.18
2022-11-20T08:52:35.716Z,64.13
2022-11-20T08:53:33.737Z,63.74
2022-11-20T08:54:33.716Z,64.46
2022-11-20T08:55:33.740Z,63.89
2022-11-20T08:56:33.746Z,62.33
2022-11-20T08:57:33.727Z,63.42
2022-11-20T08:58:54.848Z,62.15
2022-11-20T08:59:50.945Z,62.34
2022-11-20T09:00:33.824Z,63.03
2022-11-20T09:01:33.742Z,63.03
2022-11-20T09:02:33.733Z,62.65
2022-11-20T09:03:33.727Z,62.65
2022-11-20T09:04:33.745Z,63.71
2022-11-20T09:05:33.716Z,64.27
2022-11-20T09:06:33.749Z,64.35
2022-11-20T09:07:33.791Z,63.43
2022-11-20T09:08:33.729Z,63.98
2022-11-20T09:09:33.726Z,64.35
2022-11-20T09:10:33.712Z,64.26
2022-11-20T09:11:33.737Z,62.62
2022-11-20T09:12:33.722Z,62.46
2022-11-20T09:13:33.722Z,62.29
2022-11-20T09:14:33.719Z,61.87
2022-11-20T09:15:33.714Z,63.19
2022-11-20T09:16:33.728Z,60.15
2022-11-20T09:17:33.718Z,66.18
2022-11-20T09:18:33.720Z,65.03
2022-11-20T09:19:36.184Z,63.77
2022-11-20T09:20:33.718Z,63.5
2022-11-20T09:21:33.749Z,62.26
2022-11-20T09:22:33.735Z,62.74
2022-11-20T09:23:33.753Z,64.44
2022-11-20T09:24:33.724Z,64.11
2022-11-20T09:25:33.720Z,64.43
2022-11-20T09:26:33.736Z,64.26
2022-11-20T09:27:33.720Z,65.48
2022-11-20T09:28:33.718Z,65.46
2022-11-20T09:29:33.720Z,64.03
2022-11-20T09:30:33.713Z,64.56
2022-11-20T09:31:33.735Z,64.44
2022-11-20T09:32:33.727Z,64.1
2022-11-20T09:33:33.719Z,64.67
2022-11-20T09:34:33.717Z,65.51
2022-11-20T09:35:33.719Z,64.38
2022-11-20T09:36:33.733Z,64.74
2022-11-20T09:37:33.732Z,65.17
2022-11-20T09:38:33.735Z,65.11
2022-11-20T09:39:33.740Z,63.42
2022-11-20T09:40:33.722Z,64.36
2022-11-20T09:41:33.738Z,62.99
2022-11-20T09:42:33.720Z,63.7
2022-11-20T09:43:34.932Z,62.5
2022-11-20T09:44:33.717Z,64.66
2022-11-20T09:45:33.809Z,64.47
2022-11-20T09:46:33.787Z,64.73
2022-11-20T09:47:33.726Z,63.74
2022-11-20T09:48:33.723Z,63.48
2022-11-20T09:49:33.924Z,63.48
2022-11-20T09:50:33.723Z,63.64
2022-11-20T09:52:12.327Z,62.64
2022-11-20T09:53:11.174Z,62.64
2022-11-20T09:54:11.158Z,63.46
2022-11-20T09:55:11.161Z,63.75
2022-11-20T09:56:11.158Z,63.84
2022-11-20T09:57:11.164Z,63.09
2022-11-20T09:58:11.162Z,63.97
2022-11-20T09:59:11.155Z,63.97
2022-11-20T10:00:11.174Z,63.18
2022-11-20T10:01:11.195Z,62.53
2022-11-20T10:02:11.157Z,62.25
2022-11-20T10:03:11.151Z,64.94
2022-11-20T10:04:11.190Z,63.36
2022-11-20T10:05:11.154Z,64.3
2022-11-20T10:06:11.223Z,64.68
2022-11-20T10:07:31.476Z,63.54
2022-11-20T10:08:11.210Z,62.21
2022-11-20T10:09:11.158Z,62.38
2022-11-20T10:10:11.207Z,61.56
2022-11-20T10:11:11.150Z,61.59
2022-11-20T10:12:11.153Z,62.32
2022-11-20T10:13:11.159Z,60.98
2022-11-20T10:14:11.155Z,60.04
2022-11-20T10:15:11.146Z,60.24
2022-11-20T10:16:11.148Z,60.76
2022-11-20T10:17:11.207Z,61.6
2022-11-20T10:18:11.152Z,59.78
2022-11-20T10:19:11.139Z,59.83
2022-11-20T10:20:11.155Z,61.18
2022-11-20T10:21:11.151Z,60.34
2022-11-20T10:22:11.289Z,60.58
2022-11-20T10:23:11.139Z,61.68
2022-11-20T10:24:11.147Z,61.66
2022-11-20T10:25:11.155Z,61.54
2022-11-20T10:26:11.142Z,61.39
2022-11-20T10:27:11.153Z,59.39
2022-11-20T10:28:11.153Z,60.36
2022-11-20T10:29:11.143Z,61.23
2022-11-20T10:30:11.177Z,61.23
2022-11-20T10:31:11.207Z,61.85
2022-11-20T10:32:11.215Z,61.95
2022-11-20T10:33:11.145Z,60.46
2022-11-20T10:34:12.622Z,60.46
2022-11-20T10:35:11.143Z,65.2
2022-11-20T10:36:11.147Z,62.99
2022-11-20T10:37:11.158Z,63.06
2022-11-20T10:38:11.132Z,61.35
2022-11-20T10:39:11.132Z,60.94
2022-11-20T10:40:11.165Z,60.95
2022-11-20T10:41:11.133Z,62.85
2022-11-20T10:42:11.177Z,62.49
2022-11-20T10:43:11.146Z,62.62
2022-11-20T10:44:11.129Z,61.25
2022-11-20T10:45:11.184Z,60.62
2022-11-20T10:46:11.164Z,62.6
2022-11-20T10:47:11.148Z,61.73
2022-11-20T10:48:11.135Z,61.7
2022-11-20T10:49:11.129Z,59.52
2022-11-20T10:50:11.155Z,58.83
2022-11-20T10:51:11.130Z,58.07
2022-11-20T10:52:11.160Z,57.14
2022-11-20T10:53:11.125Z,58.43
2022-11-20T10:54:11.125Z,58.88
2022-11-20T10:55:11.123Z,61.7
2022-11-20T10:56:11.145Z,61.77
2022-11-20T10:57:11.147Z,61.93
2022-11-20T10:58:11.129Z,61.7
2022-11-20T10:59:11.144Z,59.77
2022-11-20T11:00:11.213Z,62.88
2022-11-20T11:01:11.175Z,61.37
2022-11-20T11:02:11.154Z,61.15
2022-11-20T11:03:11.241Z,60.95
2022-11-20T11:04:11.151Z,62.06
2022-11-20T11:05:14.363Z,62.03
2022-11-20T11:06:11.201Z,60.06
2022-11-20T11:07:11.185Z,60.03
2022-11-20T11:08:11.138Z,62.53
2022-11-20T11:09:11.139Z,61.53
2022-11-20T11:10:11.134Z,62.62
2022-11-20T11:11:11.146Z,61.43
2022-11-20T11:12:11.192Z,60.62
2022-11-20T11:13:11.135Z,60.62
2022-11-20T11:14:11.145Z,61.98
2022-11-20T11:15:11.139Z,63.9
2022-11-20T11:16:11.147Z,63.59
2022-11-20T11:17:11.353Z,63.71
2022-11-20T11:18:11.138Z,64.1
2022-11-20T11:19:11.141Z,65.69
2022-11-20T11:20:11.141Z,63.98
2022-11-20T11:21:11.143Z,62.04
2022-11-20T11:22:11.151Z,62.05
2022-11-20T11:23:11.136Z,62.12
2022-11-20T11:24:40.247Z,61.69
2022-11-20T11:25:11.138Z,62.43
2022-11-20T11:26:11.140Z,61.77
2022-11-20T11:27:16.455Z,62.34
2022-11-20T11:28:11.143Z,62.59
2022-11-20T11:29:11.142Z,62.86
2022-11-20T11:30:11.143Z,61.64
2022-11-20T11:31:11.137Z,62.4
2022-11-20T11:32:11.189Z,63.43
2022-11-20T11:33:11.139Z,62.11
2022-11-20T11:34:11.139Z,61.94
2022-11-20T11:35:11.140Z,62.7
2022-11-20T11:36:11.131Z,63.6
2022-11-20T11:37:11.573Z,61.7
2022-11-20T11:38:11.145Z,61.7
2022-11-20T11:39:11.133Z,61.54
2022-11-20T11:40:24.657Z,61.54
2022-11-20T11:41:11.140Z,60.71
2022-11-20T11:42:11.410Z,62.64
2022-11-20T11:43:11.143Z,62.65
2022-11-20T11:44:11.138Z,61.51
2022-11-20T11:45:11.151Z,61.54
2022-11-20T11:46:11.138Z,61.14
2022-11-20T11:47:11.503Z,60.17
2022-11-20T11:48:11.143Z,60.41
2022-11-20T11:49:11.150Z,60.69
2022-11-20T11:50:11.162Z,61.94
2022-11-20T11:51:11.138Z,60.81
2022-11-20T11:52:11.847Z,61.11
2022-11-20T11:53:11.147Z,61.98
2022-11-20T11:54:11.123Z,62.85
2022-11-20T11:55:11.905Z,60.64
2022-11-20T11:56:11.120Z,58.76
2022-11-20T11:57:11.161Z,59.54
2022-11-20T11:58:11.129Z,62.35
2022-11-20T11:59:11.130Z,61.54
2022-11-20T12:00:11.350Z,61.26
2022-11-20T12:01:11.126Z,60.35
2022-11-20T12:02:11.671Z,60.54
2022-11-20T12:03:11.189Z,59.39
2022-11-20T12:04:11.119Z,60.52
2022-11-20T12:05:11.173Z,59.85
2022-11-20T12:06:11.124Z,60.84
2022-11-20T12:07:38.955Z,61.17
2022-11-20T12:08:12.573Z,61.89
2022-11-20T12:09:11.122Z,61.89
2022-11-20T12:10:11.221Z,60.06
2022-11-20T12:11:11.152Z,60.06
2022-11-20T12:12:11.146Z,59.12
2022-11-20T12:13:11.141Z,59.57
2022-11-20T12:14:11.147Z,60.27
2022-11-20T12:15:11.134Z,56.93
2022-11-20T12:16:11.143Z,59.46
2022-11-20T12:17:11.148Z,60.49
2022-11-20T12:18:11.145Z,60.03
2022-11-20T12:19:11.278Z,60.63
2022-11-20T12:20:11.134Z,61.43
2022-11-20T12:21:11.148Z,61.13
2022-11-20T12:22:11.149Z,60.2
2022-11-20T12:23:11.146Z,60.03
2022-11-20T12:24:11.146Z,60.39
2022-11-20T12:25:11.140Z,59.21
2022-11-20T12:26:11.152Z,59.14
2022-11-20T12:27:11.152Z,58.69
2022-11-20T12:28:11.146Z,59.14
2022-11-20T12:29:11.138Z,59.69
2022-11-20T12:30:11.130Z,59.89
2022-11-20T12:31:11.145Z,61.03
2022-11-20T12:32:11.149Z,60.79
2022-11-20T12:33:11.146Z,59.95
2022-11-20T12:34:11.141Z,61.1
2022-11-20T12:35:11.565Z,62.47
2022-11-20T12:36:11.145Z,63.88
2022-11-20T12:37:11.148Z,64.87
2022-11-20T12:38:11.137Z,63.77
2022-11-20T12:39:11.134Z,63.83
2022-11-20T12:40:11.158Z,63.38
2022-11-20T12:41:11.139Z,62.39
2022-11-20T12:42:11.159Z,63.28
2022-11-20T12:43:11.149Z,61.06
2022-11-20T12:44:11.143Z,61.4
2022-11-20T12:45:11.172Z,61.74
2022-11-20T12:46:11.137Z,61.52
2022-11-20T12:47:11.146Z,61.38
2022-11-20T12:48:11.201Z,60.3
2022-11-20T12:49:11.142Z,60.24
2022-11-20T12:50:11.151Z,60.15
2022-11-20T12:51:15.778Z,62.09
2022-11-20T12:52:11.155Z,62.66
2022-11-20T12:53:11.138Z,62.37
2022-11-20T12:54:11.142Z,62.5
2022-11-20T12:55:11.135Z,60.04
2022-11-20T12:56:11.135Z,59.28